< < Back
Terminal Aerodrome Forecast


Current Version              Previous Versions:   1  2  3  4  5  6  7  8  9  

Terminal Aerodrome Forecast

849
FTUS42 KFFC 042343
TAFMCN
TAF
KMCN 042343Z 0500/0524 20004KT P6SM SCT025 BKN040
      TEMPO 0502/0504 VRB15G25KT 3SM TSRA BR BKN025CB
     FM050400 28003KT P6SM BKN045
     FM051000 00000KT 5SM BR BKN025
     FM051400 27003KT P6SM BKN035
     FM051900 22009G14KT P6SM VCSH BKN050 PROB30 0519/0524 3SM -TSRA
      BKN025CB=



Latest METAR

980
SAUS80 KWBC 050400 RRA
MTRMCN
METAR KMCN 050353Z AUTO 20006KT 10SM CLR 23/22 A3010 RMK AO2 SLP189
T02330217 TSNO


USA.gov is the U.S. government's official web portal to all federal, state and local government web resources and services.